Data for 01/26/2005

Time Sea-Level Adjusted Pressure Absolute Pressure Temperature Relative Humidity Dew Point   
(mb) (inHg) (mb) (inHg) (C) (F) (%) (C) (F)
00:05 1018 30.06 847 25.01 3.4 38.1 51 -5.9 21.4
00:10 1018 30.06 847 25.01 3.3 37.9 50 -6.2 20.8
00:15 1018 30.06 847 25.01 3.5 38.3 47 -6.7 20
00:20 1018 30.06 847 25.01 3.7 38.6 49 -6 21.1
00:25 1018 30.06 847 25.01 3.4 38.2 48 -6.6 20.1
00:30 1018 30.06 847 25.01 3.6 38.4 50 -5.8 21.6
00:35 1018 30.06 847 25.01 2.9 37.2 54 -5.4 22.2
00:40 1018 30.06 847 25.01 2.4 36.4 56 -5.5 22
00:45 1018 30.06 847 25.01 2.1 35.7 57 -5.6 21.9
00:50 1018 30.06 847 25.01 2.1 35.7 56 -5.8 21.6
00:55 1018 30.06 847 25.01 2.4 36.2 54 -6 21.2
01:00 1018 30.06 847 25.01 2.3 36.2 56 -5.7 21.8
01:05 1018 30.06 847 25.01 1.9 35.4 58 -5.5 22
01:10 1018 30.06 847 25.01 1.6 34.9 58 -5.7 21.8
01:15 1018 30.06 847 25.01 1.5 34.8 60 -5.4 22.4
01:20 1018 30.06 847 25.01 1.2 34.1 60 -5.8 21.6
01:25 1018 30.06 847 25.01 1.5 34.6 60 -5.4 22.2
01:30 1018 30.06 847 25.01 0.9 33.7 61 -5.8 21.6
01:35 1018 30.06 847 25.01 1.3 34.3 58 -6.1 21
01:40 1018 30.06 847 25.01 1.9 35.4 55 -6.2 20.9
01:45 1018 30.06 847 25.01 2.2 35.9 55 -5.9 21.3
01:50 1018 30.06 847 25.01 2 35.7 56 -5.8 21.6
01:55 1018 30.06 847 25.01 1.6 34.9 59 -5.5 22.1
02:00 1018 30.06 847 25.01 1.2 34.1 60 -5.8 21.6
02:05 1018 30.06 847 25.01 1.3 34.4 58 -6.1 21
02:10 1018 30.06 847 25.01 1.8 35.3 55 -6.4 20.6
02:15 1018 30.06 847 25.01 2.3 36.1 54 -6 21.2
02:20 1018 30.06 847 25.01 1.4 34.5 59 -5.8 21.6
02:25 1018 30.06 847 25.01 1.3 34.4 58 -6.1 21.1
02:30 1018 30.06 847 25.01 1.8 35.2 55 -6.4 20.5
02:35 1018 30.06 847 25.01 2.1 35.8 54 -6.2 20.9
02:40 1018 30.06 847 25.01 2.1 35.7 54 -6.2 20.9
02:45 1018 30.06 847 25.01 2.1 35.8 54 -6.2 20.9
02:50 1018 30.06 847 25.01 2.3 36.1 52 -6.5 20.3
02:55 1018 30.06 847 25.01 2.5 36.5 52 -6.3 20.7
03:00 1018 30.06 847 25.01 2.3 36.2 54 -6 21.3
03:05 1018 30.06 847 25.01 1.8 35.3 57 -5.9 21.4
03:10 1018 30.06 847 25.01 1.6 34.9 58 -5.8 21.5
03:15 1018 30.06 847 25.01 1.5 34.7 58 -5.9 21.4
03:20 1018 30.06 847 25.01 1.5 34.6 59 -5.7 21.8
03:25 1017 30.03 847 25.01 1.3 34.4 59 -5.8 21.6
03:30 1017 30.03 847 25.01 1.3 34.4 59 -5.8 21.5
03:35 1017 30.03 847 25.01 1.4 34.4 59 -5.8 21.5
03:40 1017 30.03 846 24.98 1.3 34.4 58 -6 21.1
03:45 1017 30.03 846 24.98 1.3 34.4 59 -5.8 21.6
03:50 1017 30.03 847 25.01 1.1 34.1 59 -6.1 21.1
03:55 1017 30.03 847 25.01 1.2 34.1 59 -5.9 21.3
04:00 1017 30.03 847 25.01 1.2 34.1 58 -6.2 20.9
04:05 1017 30.03 847 25.01 1.4 34.5 57 -6.1 21
04:10 1017 30.03 847 25.01 1.3 34.4 58 -6 21.2
04:15 1017 30.03 847 25.01 1.2 34.1 58 -6.2 20.9
04:20 1017 30.03 847 25.01 1 33.9 60 -5.9 21.3
04:25 1017 30.03 847 25.01 0.9 33.5 60 -6 21.2
04:30 1017 30.03 847 25.01 0.8 33.4 62 -5.7 21.7
04:35 1017 30.03 847 25.01 0.6 33.2 61 -6.1 21
04:40 1017 30.03 847 25.01 0.9 33.6 60 -6.1 21.1
04:45 1018 30.06 847 25.01 0.6 33.1 62 -5.8 21.5
04:50 1018 30.06 847 25.01 0.3 32.6 62 -6 21.1
04:55 1018 30.06 847 25.01 0.7 33.2 61 -6.1 21.1
05:00 1018 30.06 847 25.01 0.8 33.4 60 -6.1 21
05:05 1017 30.03 847 25.01 0.9 33.6 59 -6.1 20.9
05:10 1017 30.03 847 25.01 0.8 33.4 60 -6.1 21.1
05:15 1017 30.03 847 25.01 0.3 32.6 62 -6 21.2
05:20 1018 30.06 847 25.01 0.5 32.9 60 -6.4 20.5
05:25 1017 30.03 847 25.01 0.5 33 61 -6.1 21
05:30 1017 30.03 847 25.01 0.2 32.4 63 -6.1 21
05:35 1018 30.06 847 25.01 0.2 32.4 62 -6.2 20.8
05:40 1017 30.03 847 25.01 -0 32 64 -6 21.2
05:45 1017 30.03 847 25.01 -0.1 31.8 65 -5.9 21.3
05:50 1017 30.03 847 25.01 -0.5 31.1 66 -6.2 20.9
05:55 1017 30.03 847 25.01 0.1 32.1 63 -6.3 20.7
06:00 1017 30.03 847 25.01 0.5 32.8 61 -6.3 20.7
06:05 1017 30.03 846 24.98 0.4 32.7 62 -6.2 20.9
06:10 1017 30.03 846 24.98 -0.1 31.9 65 -5.9 21.3
06:15 1017 30.03 846 24.98 -0.5 31.2 65 -6.3 20.6
06:20 1017 30.03 847 25.01 0.1 32.2 61 -6.5 20.3
06:25 1017 30.03 846 24.98 0.6 33.1 59 -6.6 20.1
06:30 1017 30.03 846 24.98 0.7 33.3 59 -6.4 20.5
06:35 1017 30.03 847 25.01 0.4 32.8 62 -6.1 21
06:40 1017 30.03 847 25.01 -0.1 31.8 65 -5.9 21.3
06:45 1017 30.03 847 25.01 -0.4 31.3 65 -6.2 20.8
06:50 1017 30.03 847 25.01 -0.1 31.7 63 -6.3 20.7
06:55 1017 30.03 847 25.01 0.1 32.1 62 -6.3 20.7
07:00 1017 30.03 847 25.01 0.2 32.3 62 -6.2 20.9
07:05 1017 30.03 847 25.01 0.3 32.5 61 -6.3 20.6
07:10 1017 30.03 847 25.01 0.3 32.5 61 -6.3 20.7
07:15 1017 30.03 847 25.01 0.5 33 62 -6 21.3
07:20 1017 30.03 847 25.01 0 32 64 -5.9 21.3
07:25 1017 30.03 847 25.01 -0.3 31.4 66 -6 21.2
07:30 1017 30.03 847 25.01 -0.6 30.9 65 -6.4 20.4
07:35 1017 30.03 847 25.01 -0.3 31.5 63 -6.5 20.3
07:40 1017 30.03 847 25.01 0.5 32.8 59 -6.7 20
07:45 1017 30.03 847 25.01 0.8 33.5 58 -6.6 20.2
07:50 1018 30.06 847 25.01 0.7 33.3 60 -6.3 20.6
07:55 1018 30.06 847 25.01 0.5 32.9 61 -6.1 21
08:00 1017 30.03 847 25.01 -0.3 31.5 64 -6.3 20.7
08:05 1017 30.03 847 25.01 -0.5 31.2 64 -6.6 20.2
08:10 1017 30.03 847 25.01 -0.1 31.8 61 -6.7 20
08:15 1017 30.03 847 25.01 0.3 32.6 60 -6.6 20
08:20 1017 30.03 847 25.01 0.9 33.6 58 -6.5 20.4
08:25 1017 30.03 847 25.01 0.9 33.6 57 -6.7 19.9
08:30 1017 30.03 847 25.01 0.7 33.2 58 -6.6 20.1
08:35 1017 30.03 847 25.01 0.5 32.9 60 -6.5 20.4
08:40 1018 30.06 847 25.01 0.4 32.7 60 -6.6 20.1
08:45 1018 30.06 847 25.01 0.5 32.9 60 -6.5 20.4
08:50 1017 30.03 847 25.01 0.7 33.3 59 -6.4 20.5
08:55 1017 30.03 847 25.01 1 33.8 57 -6.6 20.1
09:00 1018 30.06 847 25.01 1.3 34.4 55 -6.7 19.9
09:05 1017 30.03 847 25.01 1.9 35.4 53 -6.8 19.8
09:10 1017 30.03 847 25.01 2.3 36.1 52 -6.5 20.3
09:15 1017 30.03 847 25.01 2.5 36.5 52 -6.4 20.4
09:20 1017 30.03 847 25.01 2.5 36.5 52 -6.5 20.4
09:25 1018 30.06 847 25.01 2.9 37.3 51 -6.2 20.8
09:30 1018 30.06 847 25.01 4 39.2 48 -6 21.2
09:35 1018 30.06 847 25.01 4.4 39.9 46 -6.1 21
09:40 1018 30.06 847 25.01 4.2 39.5 49 -5.5 22
09:45 1017 30.03 847 25.01 3.6 38.5 49 -6.1 21
09:50 1017 30.03 847 25.01 3.6 38.5 49 -6.2 20.8
09:55 1017 30.03 847 25.01 3.7 38.7 48 -6.3 20.6
10:00 1017 30.03 847 25.01 4 39.2 47 -6.2 20.8
10:05 1017 30.03 847 25.01 4.5 40.1 45 -6.4 20.4
10:10 1017 30.03 847 25.01 5.2 41.4 43 -6.2 20.8
10:15 1017 30.03 847 25.01 5.2 41.3 45 -5.9 21.5
10:20 1017 30.03 847 25.01 5.2 41.4 46 -5.4 22.2
10:25 1018 30.06 847 25.01 5.1 41.1 47 -5.3 22.4
10:30 1018 30.06 847 25.01 5.2 41.3 47 -5.3 22.5
10:35 1018 30.06 847 25.01 5.5 41.9 47 -4.9 23.1
10:40 1018 30.06 847 25.01 5.8 42.5 45 -5.1 22.8
10:45 1017 30.03 847 25.01 6.3 43.4 43 -5.4 22.3
10:50 1018 30.06 847 25.01 6.9 44.4 41 -5.4 22.3
10:55 1018 30.06 847 25.01 7.1 44.7 42 -4.9 23.1
11:00 1018 30.06 847 25.01 7.2 45 40 -5.6 22
11:05 1018 30.06 847 25.01 6.5 43.6 43 -5.2 22.6
11:10 1017 30.03 847 25.01 6.7 44 42 -5.5 22.1
11:15 1017 30.03 847 25.01 7 44.6 40 -5.8 21.5
11:20 1017 30.03 847 25.01 7.5 45.5 39 -5.7 21.7
11:25 1017 30.03 847 25.01 7.5 45.6 40 -5.2 22.7
11:30 1017 30.03 847 25.01 8.1 46.7 40 -4.7 23.5
11:35 1017 30.03 847 25.01 7.8 46.1 42 -4.4 24.1
11:40 1017 30.03 847 25.01 7.6 45.7 42 -4.6 23.7
11:45 1017 30.03 846 24.98 7.3 45.1 45 -3.8 25.1
11:50 1017 30.03 846 24.98 7 44.6 45 -4.2 24.5
11:55 1017 30.03 846 24.98 6.5 43.8 46 -4.2 24.5
12:00 1017 30.03 846 24.98 6.5 43.7 47 -4 24.7
12:05 1017 30.03 846 24.98 6.6 43.8 45 -4.6 23.8
12:10 1017 30.03 846 24.98 7.7 45.9 40 -4.9 23.1
12:15 1017 30.03 846 24.98 8.9 48 38 -4.8 23.4
12:20 1017 30.03 846 24.98 8.8 47.8 38 -4.7 23.5
12:25 1017 30.03 846 24.98 7.8 46.1 40 -4.9 23.2
12:30 1017 30.03 846 24.98 8.1 46.5 38 -5.4 22.3
12:35 1017 30.03 846 24.98 8.9 47.9 36 -5.4 22.3
12:40 1017 30.03 846 24.98 8.4 47.2 38 -5.1 22.8
12:45 1016 30 846 24.98 8.5 47.3 38 -5 22.9
12:50 1016 30 845 24.95 8.4 47.1 39 -4.8 23.4
12:55 1016 30 845 24.95 7.9 46.2 38 -5.4 22.3
13:00 1016 30 845 24.95 7.6 45.7 40 -5.2 22.7
13:05 1016 30 845 24.95 7.7 45.8 38 -5.7 21.8
13:10 1016 30 845 24.95 8.4 47.1 37 -5.4 22.2
13:15 1016 30 845 24.95 9.1 48.3 34 -5.8 21.6
13:20 1016 30 845 24.95 9.4 48.9 35 -5.2 22.7
13:25 1016 30 845 24.95 8.9 47.9 37 -5.1 22.8
13:30 1016 30 845 24.95 9 48.1 36 -5.3 22.5
13:35 1016 30 845 24.95 8.9 48 37 -4.8 23.3
13:40 1016 30 845 24.95 8.8 47.8 38 -4.8 23.3
13:45 1016 30 845 24.95 9.1 48.4 36 -5.1 22.8
13:50 1016 30 845 24.95 8.9 48.1 39 -4.4 24.1
13:55 1015 29.97 845 24.95 8.6 47.6 40 -4.1 24.7
14:00 1015 29.97 845 24.95 8.5 47.2 40 -4.3 24.3
14:05 1015 29.97 845 24.95 8.4 47.2 41 -4.1 24.5
14:10 1015 29.97 844 24.92 7.9 46.2 44 -3.7 25.4
14:15 1015 29.97 844 24.92 7.5 45.5 43 -4.3 24.3
14:20 1015 29.97 844 24.92 7.3 45.1 44 -4.2 24.4
14:25 1015 29.97 844 24.92 8 46.4 41 -4.3 24.2
14:30 1015 29.97 844 24.92 7.8 46 44 -3.7 25.4
14:35 1015 29.97 844 24.92 7.6 45.6 42 -4.5 23.9
14:40 1015 29.97 844 24.92 8.2 46.7 40 -4.6 23.7
14:45 1015 29.97 844 24.92 8.4 47.1 39 -4.7 23.5
14:50 1015 29.97 844 24.92 8.7 47.6 38 -4.8 23.4
14:55 1015 29.97 844 24.92 9.1 48.4 37 -4.7 23.6
15:00 1015 29.97 844 24.92 9.1 48.4 38 -4.6 23.8
15:05 1015 29.97 844 24.92 9.2 48.6 37 -4.8 23.3
15:10 1015 29.97 844 24.92 9.7 49.5 35 -5.1 22.8
15:15 1015 29.97 844 24.92 9.7 49.5 35 -4.9 23.3
15:20 1015 29.97 844 24.92 9.9 49.7 35 -4.8 23.4
15:25 1015 29.97 844 24.92 9.9 49.8 35 -4.8 23.3
15:30 1015 29.97 844 24.92 9.6 49.3 37 -4.4 24.2
15:35 1015 29.97 844 24.92 8.8 47.8 38 -4.7 23.5
15:40 1015 29.97 844 24.92 8.9 48 38 -4.5 23.8
15:45 1015 29.97 844 24.92 9 48.3 38 -4.7 23.6
15:50 1015 29.97 844 24.92 9.3 48.8 37 -4.6 23.8
15:55 1015 29.97 844 24.92 9.2 48.6 38 -4.4 24.1
16:00 1015 29.97 844 24.92 9.2 48.5 38 -4.3 24.3
16:05 1015 29.97 844 24.92 8.9 48.1 40 -4.1 24.7
16:10 1015 29.97 844 24.92 8.7 47.6 40 -4.2 24.5
16:15 1015 29.97 844 24.92 8.5 47.4 40 -4.3 24.3
16:20 1015 29.97 844 24.92 8.6 47.5 40 -4.2 24.5
16:25 1015 29.97 844 24.92 9 48.2 39 -4.1 24.6
16:30 1015 29.97 844 24.92 9.2 48.5 39 -3.9 24.9
16:35 1015 29.97 844 24.92 9 48.2 40 -3.9 25
16:40 1015 29.97 844 24.92 8.8 47.8 40 -3.9 24.9
16:45 1014 29.94 844 24.92 8.3 47 42 -3.9 25
16:50 1014 29.94 844 24.92 8.2 46.7 42 -4 24.7
16:55 1014 29.94 844 24.92 8.2 46.8 42 -3.9 25
17:00 1014 29.94 843 24.89 7.9 46.3 43 -3.8 25.2
17:05 1014 29.94 843 24.89 7.1 44.8 46 -3.7 25.3
17:10 1014 29.94 843 24.89 6.8 44.3 47 -3.6 25.5
17:15 1014 29.94 843 24.89 6.6 43.9 48 -3.6 25.5
17:20 1014 29.94 843 24.89 6.6 44 47 -3.8 25.2
17:25 1014 29.94 843 24.89 6.8 44.2 48 -3.5 25.6
17:30 1014 29.94 843 24.89 6.5 43.8 48 -3.6 25.5
17:35 1014 29.94 843 24.89 6.1 43 50 -3.5 25.6
17:40 1014 29.94 843 24.89 5.7 42.3 51 -3.6 25.6
17:45 1014 29.94 843 24.89 5.4 41.8 52 -3.7 25.4
17:50 1014 29.94 843 24.89 5.4 41.7 52 -3.7 25.4
17:55 1014 29.94 843 24.89 5.4 41.8 52 -3.7 25.3
18:00 1014 29.94 843 24.89 5.5 41.8 53 -3.4 25.9
18:05 1014 29.94 843 24.89 5.3 41.6 54 -3.3 26.1
18:10 1014 29.94 843 24.89 4.9 40.8 56 -3.1 26.5
18:15 1014 29.94 843 24.89 4.2 39.5 59 -3.2 26.3
18:20 1014 29.94 843 24.89 4 39.3 58 -3.5 25.7
18:25 1014 29.94 843 24.89 4.1 39.3 59 -3.3 26.1
18:30 1014 29.94 843 24.89 3.7 38.7 58 -3.7 25.4
18:35 1014 29.94 843 24.89 3.5 38.3 59 -3.9 25
18:40 1014 29.94 843 24.89 3.5 38.3 60 -3.7 25.4
18:45 1014 29.94 843 24.89 3.2 37.8 60 -3.8 25.1
18:50 1014 29.94 843 24.89 3.1 37.7 60 -3.8 25.1
18:55 1014 29.94 843 24.89 3.2 37.7 60 -3.8 25.1
19:00 1014 29.94 843 24.89 3.3 38 59 -4 24.9
19:05 1014 29.94 843 24.89 3.4 38.1 59 -3.8 25.2
19:10 1014 29.94 843 24.89 2.8 37 62 -3.8 25.2
19:15 1014 29.94 843 24.89 3.1 37.7 59 -4.1 24.7
19:20 1014 29.94 843 24.89 3.7 38.6 57 -4.2 24.5
19:25 1014 29.94 843 24.89 3.8 38.9 56 -4.2 24.5
19:30 1014 29.94 843 24.89 3.8 38.8 57 -4 24.8
19:35 1014 29.94 843 24.89 3.5 38.4 57 -4.3 24.3
19:40 1014 29.94 843 24.89 3.7 38.6 57 -4.2 24.5
19:45 1014 29.94 843 24.89 3.5 38.2 58 -4 24.8
19:50 1014 29.94 843 24.89 3.7 38.7 56 -4.1 24.6
19:55 1014 29.94 843 24.89 3.9 39.1 55 -4.4 24.1
20:00 1014 29.94 843 24.89 4.1 39.4 56 -4 24.9
20:05 1014 29.94 843 24.89 3.2 37.7 60 -3.8 25.1
20:10 1014 29.94 843 24.89 3.2 37.8 59 -4.1 24.6
20:15 1014 29.94 843 24.89 3.5 38.2 58 -4.1 24.5
20:20 1014 29.94 843 24.89 3.4 38.1 58 -4.1 24.7
20:25 1014 29.94 843 24.89 3.5 38.3 57 -4.3 24.3
20:30 1014 29.94 843 24.89 3.8 38.9 56 -4.1 24.5
20:35 1014 29.94 843 24.89 3.3 38 59 -3.9 25
20:40 1014 29.94 843 24.89 2.6 36.7 62 -3.9 25
20:45 1014 29.94 843 24.89 3 37.4 58 -4.5 23.8
20:50 1014 29.94 843 24.89 3.2 37.7 59 -4.1 24.5
20:55 1014 29.94 843 24.89 3.1 37.6 60 -3.9 25
21:00 1014 29.94 843 24.89 2.5 36.5 62 -4.1 24.6
21:05 1014 29.94 843 24.89 2.5 36.5 60 -4.4 24.1
21:10 1014 29.94 843 24.89 2.4 36.4 62 -4 24.7
21:15 1014 29.94 843 24.89 2.2 35.9 63 -4.2 24.5
21:20 1014 29.94 843 24.89 2.1 35.8 63 -4.2 24.5
21:25 1014 29.94 843 24.89 2 35.7 63 -4.2 24.5
21:30 1014 29.94 843 24.89 1.9 35.4 65 -4 24.7
21:35 1014 29.94 843 24.89 1.7 35.1 66 -3.9 24.9
21:40 1014 29.94 843 24.89 1.5 34.7 67 -4 24.9
21:45 1014 29.94 843 24.89 1.3 34.3 68 -4 24.8
21:50 1014 29.94 843 24.89 1.6 34.8 65 -4.3 24.3
21:55 1014 29.94 843 24.89 2.3 36.1 61 -4.4 24.1
22:00 1014 29.94 843 24.89 3.2 37.7 59 -4.1 24.6
22:05 1014 29.94 843 24.89 3.1 37.6 59 -4.1 24.6
22:10 1014 29.94 843 24.89 3.2 37.8 59 -3.9 25
22:15 1014 29.94 843 24.89 3.3 38 59 -3.9 24.9
22:20 1014 29.94 843 24.89 3.2 37.8 60 -3.9 25
22:25 1014 29.94 843 24.89 2.9 37.3 61 -3.9 25
22:30 1014 29.94 843 24.89 2.8 37 61 -4 24.8
22:35 1014 29.94 843 24.89 2.6 36.6 62 -3.9 25
22:40 1013 29.91 843 24.89 2.5 36.5 62 -4.1 24.7
22:45 1013 29.91 843 24.89 2.6 36.7 62 -4 24.9
22:50 1013 29.91 843 24.89 2.4 36.3 62 -4 24.7
22:55 1013 29.91 843 24.89 2.2 35.9 64 -4 24.8
23:00 1013 29.91 843 24.89 2 35.6 65 -3.9 25
23:05 1013 29.91 843 24.89 2.1 35.7 63 -4.2 24.4
23:10 1013 29.91 843 24.89 2.9 37.2 60 -4.1 24.7
23:15 1013 29.91 843 24.89 2.9 37.2 60 -4 24.8
23:20 1013 29.91 842 24.86 2.8 37 61 -3.9 24.9
23:25 1013 29.91 842 24.86 2.6 36.6 62 -4 24.7
23:30 1013 29.91 842 24.86 2.6 36.6 61 -4.2 24.5
23:35 1013 29.91 842 24.86 2.5 36.6 62 -4.1 24.6
23:40 1013 29.91 842 24.86 2.4 36.4 63 -3.9 25
23:45 1013 29.91 842 24.86 2.7 36.8 62 -3.9 25
23:50 1013 29.91 842 24.86 2.5 36.5 63 -3.9 25
23:55 1013 29.91 842 24.86 1.9 35.4 65 -3.9 24.9
24:00 1013 29.91 842 24.86 1.7 35.1 65 -4.1 24.7